createdAt,value
2023-03-29T00:03:15.397Z,40
2023-03-29T00:08:17.569Z,40
2023-03-29T00:13:21.155Z,40
2023-03-29T00:18:23.385Z,40
2023-03-29T00:23:25.468Z,40
2023-03-29T00:28:28.353Z,40
2023-03-29T00:33:32.026Z,40
2023-03-29T00:38:34.123Z,40
2023-03-29T00:43:36.375Z,40
2023-03-29T00:48:39.260Z,40
2023-03-29T00:53:42.273Z,40
2023-03-29T00:58:44.574Z,40
2023-03-29T01:03:46.949Z,40
2023-03-29T01:08:48.813Z,40
2023-03-29T01:13:51.172Z,40
2023-03-29T01:18:53.276Z,40
2023-03-29T01:23:56.265Z,40
2023-03-29T01:29:00.050Z,40
2023-03-29T01:34:08.212Z,40
2023-03-29T01:39:11.175Z,40
2023-03-29T01:44:13.288Z,40
2023-03-29T01:49:15.597Z,40
2023-03-29T01:54:19.200Z,40
2023-03-29T01:59:21.310Z,40
2023-03-29T02:04:23.456Z,40
2023-03-29T02:09:26.324Z,40
2023-03-29T02:14:29.325Z,40
2023-03-29T02:19:31.441Z,40
2023-03-29T02:24:34.311Z,40
2023-03-29T02:29:37.192Z,40
2023-03-29T02:34:39.352Z,40
2023-03-29T02:39:41.459Z,40
2023-03-29T02:44:43.587Z,40
2023-03-29T02:49:45.768Z,40
2023-03-29T02:54:47.840Z,41
2023-03-29T02:59:50.001Z,41
2023-03-29T03:04:52.151Z,41
2023-03-29T03:09:54.335Z,41
2023-03-29T03:14:56.483Z,41
2023-03-29T03:19:58.826Z,41
2023-03-29T03:25:01.627Z,41
2023-03-29T03:30:03.753Z,41
2023-03-29T03:35:05.908Z,41
2023-03-29T03:40:08.742Z,41
2023-03-29T03:45:10.874Z,41
2023-03-29T03:50:13.794Z,41
2023-03-29T03:55:15.981Z,41
2023-03-29T04:00:18.855Z,41
2023-03-29T04:05:21.047Z,41
2023-03-29T04:10:23.137Z,41
2023-03-29T04:15:29.901Z,41
2023-03-29T04:20:33.676Z,41
2023-03-29T04:25:35.910Z,41
2023-03-29T04:30:39.536Z,42
2023-03-29T04:35:43.449Z,43
2023-03-29T04:40:46.241Z,43
2023-03-29T04:45:48.530Z,44
2023-03-29T04:50:50.886Z,44
2023-03-29T04:55:53.088Z,44
2023-03-29T05:00:55.347Z,43
2023-03-29T05:05:57.604Z,43
2023-03-29T05:11:00.666Z,42
2023-03-29T05:16:04.124Z,41
2023-03-29T05:21:07.144Z,40
2023-03-29T05:26:10.803Z,39
2023-03-29T05:31:14.805Z,39
2023-03-29T05:36:15.439Z,38
2023-03-29T05:41:18.208Z,38
2023-03-29T05:46:20.576Z,38
2023-03-29T05:51:25.028Z,39
2023-03-29T05:56:27.243Z,39
2023-03-29T06:01:30.980Z,39
2023-03-29T06:06:33.300Z,39
2023-03-29T06:11:36.089Z,40
2023-03-29T06:16:41.472Z,40
2023-03-29T06:21:44.830Z,40
2023-03-29T06:26:47.903Z,41
2023-03-29T06:31:55.003Z,41
2023-03-29T06:36:57.514Z,41
2023-03-29T06:42:02.067Z,41
2023-03-29T06:47:02.683Z,42
2023-03-29T06:52:07.589Z,42
2023-03-29T06:57:09.971Z,42
2023-03-29T07:02:12.364Z,42
2023-03-29T07:07:14.579Z,42
2023-03-29T07:12:17.414Z,42
2023-03-29T07:17:19.550Z,42
2023-03-29T07:22:21.738Z,42
2023-03-29T07:27:24.584Z,42
2023-03-29T07:32:26.798Z,43
2023-03-29T07:37:28.911Z,43
2023-03-29T07:42:32.037Z,43
2023-03-29T07:47:34.126Z,43
2023-03-29T07:52:37.127Z,43
2023-03-29T07:57:39.400Z,43
2023-03-29T08:02:41.719Z,43
2023-03-29T08:07:44.585Z,43
2023-03-29T08:12:47.572Z,43
2023-03-29T08:17:49.828Z,43
2023-03-29T08:22:51.867Z,44
2023-03-29T08:27:55.528Z,45
2023-03-29T08:32:57.670Z,45
2023-03-29T08:37:59.989Z,45
2023-03-29T08:43:02.976Z,45
2023-03-29T08:48:05.149Z,45
2023-03-29T08:53:07.462Z,44
2023-03-29T08:58:09.511Z,44
2023-03-29T09:03:12.736Z,43
2023-03-29T09:08:15.611Z,43
2023-03-29T09:13:24.018Z,43
2023-03-29T09:18:26.147Z,43
2023-03-29T09:23:32.943Z,44
2023-03-29T09:28:35.121Z,45
2023-03-29T09:33:38.086Z,45
2023-03-29T09:38:40.362Z,46
2023-03-29T09:43:44.835Z,46
2023-03-29T09:48:47.181Z,46
2023-03-29T09:53:51.023Z,46
2023-03-29T09:58:53.152Z,46
2023-03-29T10:03:55.309Z,45
2023-03-29T10:08:57.455Z,44
2023-03-29T10:13:59.585Z,43
2023-03-29T10:19:01.879Z,42
2023-03-29T10:24:04.764Z,42
2023-03-29T10:29:07.655Z,41
2023-03-29T10:34:10.635Z,41
2023-03-29T10:39:12.772Z,41
2023-03-29T10:44:20.922Z,41
2023-03-29T10:49:23.839Z,41
2023-03-29T10:54:27.671Z,41
2023-03-29T10:59:29.909Z,41
2023-03-29T11:04:32.145Z,42
2023-03-29T11:09:34.481Z,42
2023-03-29T11:14:38.095Z,42
2023-03-29T11:19:40.988Z,42
2023-03-29T11:24:43.933Z,42
2023-03-29T11:29:46.029Z,42
2023-03-29T11:34:48.185Z,43
2023-03-29T11:39:50.355Z,43
2023-03-29T11:44:54.143Z,43
2023-03-29T11:49:55.342Z,43
2023-03-29T11:54:59.777Z,44
2023-03-29T12:00:01.883Z,44
2023-03-29T12:05:04.775Z,44
2023-03-29T12:10:06.971Z,45
2023-03-29T12:15:09.853Z,45
2023-03-29T12:20:11.980Z,45
2023-03-29T12:25:14.683Z,45
2023-03-29T12:30:16.290Z,45
2023-03-29T12:35:18.540Z,46
2023-03-29T12:40:23.822Z,46
2023-03-29T12:45:27.669Z,46
2023-03-29T12:50:31.456Z,46
2023-03-29T12:55:33.700Z,46
2023-03-29T13:00:40.644Z,46
2023-03-29T13:05:42.759Z,46
2023-03-29T13:10:45.655Z,46
2023-03-29T13:15:47.792Z,46
2023-03-29T13:20:50.639Z,46
2023-03-29T13:25:56.041Z,46
2023-03-29T13:30:58.312Z,46
2023-03-29T13:36:00.739Z,46
2023-03-29T13:41:03.441Z,46
2023-03-29T13:46:07.093Z,46
2023-03-29T13:51:09.191Z,46
2023-03-29T13:56:12.106Z,47
2023-03-29T14:01:15.746Z,47
2023-03-29T14:06:17.868Z,47
2023-03-29T14:11:20.036Z,47
2023-03-29T14:16:22.173Z,47
2023-03-29T14:21:25.118Z,47
2023-03-29T14:26:28.195Z,47
2023-03-29T14:31:31.792Z,47
2023-03-29T14:36:34.734Z,47
2023-03-29T14:41:36.823Z,47
2023-03-29T14:46:39.751Z,47
2023-03-29T14:51:41.949Z,47
2023-03-29T14:56:44.145Z,47
2023-03-29T15:01:46.352Z,47
2023-03-29T15:06:49.185Z,47
2023-03-29T15:11:52.894Z,47
2023-03-29T15:16:55.160Z,47
2023-03-29T15:22:01.098Z,47
2023-03-29T15:27:04.232Z,47
2023-03-29T15:32:06.379Z,47
2023-03-29T15:37:13.168Z,47
2023-03-29T15:42:19.908Z,48
2023-03-29T15:47:23.551Z,48
2023-03-29T15:52:28.804Z,48
2023-03-29T15:57:31.100Z,48
2023-03-29T16:02:33.301Z,48
2023-03-29T16:07:36.065Z,48
2023-03-29T16:12:39.214Z,48
2023-03-29T16:17:45.951Z,48
2023-03-29T16:22:49.579Z,48
2023-03-29T16:27:52.463Z,47
2023-03-29T16:32:55.362Z,47
2023-03-29T16:37:58.427Z,47
2023-03-29T16:43:00.659Z,47
2023-03-29T16:48:04.456Z,47
2023-03-29T16:53:06.573Z,48
2023-03-29T16:58:08.883Z,48
2023-03-29T17:03:10.892Z,48
2023-03-29T17:08:12.992Z,48
2023-03-29T17:13:16.094Z,48
2023-03-29T17:18:18.161Z,48
2023-03-29T17:23:21.292Z,48
2023-03-29T17:28:23.448Z,49
2023-03-29T17:33:26.475Z,49
2023-03-29T17:38:29.291Z,49
2023-03-29T17:43:31.478Z,49
2023-03-29T17:48:33.576Z,49
2023-03-29T17:53:37.249Z,48
2023-03-29T17:58:39.516Z,47
2023-03-29T18:03:41.746Z,47
2023-03-29T18:08:44.044Z,46
2023-03-29T18:13:48.439Z,45
2023-03-29T18:18:52.151Z,44
2023-03-29T18:23:56.288Z,44
2023-03-29T18:29:01.130Z,44
2023-03-29T18:34:03.997Z,43
2023-03-29T18:39:08.510Z,43
2023-03-29T18:44:10.700Z,43
2023-03-29T18:49:12.981Z,43
2023-03-29T18:54:22.469Z,43
2023-03-29T18:59:28.507Z,44
2023-03-29T19:04:30.626Z,44
2023-03-29T19:09:32.760Z,44
2023-03-29T19:14:36.642Z,44
2023-03-29T19:19:38.919Z,44
2023-03-29T19:24:45.584Z,45
2023-03-29T19:29:49.436Z,45
2023-03-29T19:34:52.353Z,45
2023-03-29T19:39:54.716Z,45
2023-03-29T19:44:56.983Z,45
2023-03-29T19:49:59.895Z,45
2023-03-29T19:55:02.923Z,45
2023-03-29T20:00:05.135Z,45
2023-03-29T20:05:08.008Z,45
2023-03-29T20:10:10.288Z,45
2023-03-29T20:15:12.402Z,45
2023-03-29T20:20:15.555Z,45
2023-03-29T20:25:18.405Z,45
2023-03-29T20:30:21.336Z,45
2023-03-29T20:35:23.444Z,45
2023-03-29T20:40:28.028Z,45
2023-03-29T20:45:42.889Z,45
2023-03-29T20:50:36.881Z,45
2023-03-29T20:55:39.040Z,45
2023-03-29T21:00:45.827Z,45
2023-03-29T21:05:47.928Z,44
2023-03-29T21:10:50.860Z,44
2023-03-29T21:15:53.065Z,43
2023-03-29T21:20:55.318Z,42
2023-03-29T21:25:57.369Z,42
2023-03-29T21:30:59.734Z,42
2023-03-29T21:36:04.214Z,42
2023-03-29T21:41:07.144Z,42
2023-03-29T21:46:09.408Z,42
2023-03-29T21:51:12.360Z,42
2023-03-29T21:56:15.254Z,42
2023-03-29T22:01:18.975Z,42
2023-03-29T22:06:21.130Z,42
2023-03-29T22:11:23.283Z,42
2023-03-29T22:16:26.230Z,41
2023-03-29T22:21:29.209Z,41
2023-03-29T22:26:32.810Z,41
2023-03-29T22:31:35.074Z,41
2023-03-29T22:36:37.902Z,41
2023-03-29T22:41:41.035Z,41
2023-03-29T22:46:43.153Z,41
2023-03-29T22:51:45.287Z,41
2023-03-29T22:56:47.542Z,41
2023-03-29T23:01:50.420Z,42
2023-03-29T23:06:52.531Z,42
2023-03-29T23:11:55.612Z,42
2023-03-29T23:16:58.479Z,42
2023-03-29T23:22:00.595Z,42
2023-03-29T23:27:07.607Z,42
2023-03-29T23:32:10.012Z,42
2023-03-29T23:37:12.097Z,42
2023-03-29T23:42:15.741Z,42
2023-03-29T23:47:19.650Z,42
2023-03-29T23:52:21.788Z,42
2023-03-29T23:57:24.123Z,42
